Orrville, Canada
Current Conditions -  °F | °C
As of 2:00 PM on Thursday 30 Oct 2014 (Local Time) from CYQA Reporting Station
Broken Clouds Broken Clouds  
Wind Chill: 34°   Ceiling: 2800
Heat Index: 41°   Visibility: 9mi
Dew Point: 30°   Wind: 12mph
Humidity: 65%   Direction: 320°NW
Pressure: 30.03"   Gusts: 17mph
Location:  45.38°N, 79.78°W
Report Text: CYQA 301800Z AUTO 32010G15KT 9SM BKN028 05/M01 A3003 RMK SLP179
Loading
Personal Weather Stations






























Interactive Weather Map
Tropical Storm Tracking
New forecast layout! Learn more

10-Day Weather Forecast

Advertisements
Track Severe Weather on mobile